KLM4425 ENSB-ENTC
Flight info
| Callsign | KLM4425 |
|---|---|
| Flight time | 1h 28m |
| Altitude | 37000 |
| Route | AMPIS P853 LOMVI |
| Aircraft | A320/M-SDE3FGHIRWY/LB1 |
Departure
| Time | 2026-05-05 15:21 |
|---|---|
| Airport | Svalbard Airport, Longyear (ENSB) |
Arrival
| Time | 2026-05-05 16:49 |
|---|---|
| Airport | Tromsø Airport (ENTC) |
| Time | Latitude | Longitude | Altitude | Speed | Heading |
|---|---|---|---|---|---|
| 2026-05-05 15:11 | 78.24631 | 15.49271 | 95 ft | 0 kts | 78° |
| 2026-05-05 15:12 | 78.24631 | 15.49368 | 95 ft | 4 kts | 97° |
| 2026-05-05 15:12 | 78.24620 | 15.49483 | 95 ft | 4 kts | 125° |
| 2026-05-05 15:12 | 78.24599 | 15.49547 | 95 ft | 4 kts | 162° |
| 2026-05-05 15:13 | 78.24573 | 15.49540 | 95 ft | 4 kts | 192° |
| 2026-05-05 15:13 | 78.24566 | 15.49531 | 95 ft | 0 kts | 195° |
| 2026-05-05 15:17 | 78.24533 | 15.49486 | 96 ft | 10 kts | 195° |
| 2026-05-05 15:17 | 78.24467 | 15.49234 | 95 ft | 16 kts | 263° |
| 2026-05-05 15:17 | 78.24497 | 15.48586 | 97 ft | 23 kts | 286° |
| 2026-05-05 15:17 | 78.24546 | 15.47719 | 99 ft | 30 kts | 285° |
| 2026-05-05 15:18 | 78.24610 | 15.46611 | 95 ft | 35 kts | 284° |
| 2026-05-05 15:18 | 78.24669 | 15.45551 | 92 ft | 34 kts | 286° |
| 2026-05-05 15:18 | 78.24725 | 15.44582 | 89 ft | 28 kts | 288° |
| 2026-05-05 15:18 | 78.24781 | 15.43745 | 88 ft | 26 kts | 286° |
| 2026-05-05 15:19 | 78.24826 | 15.42974 | 83 ft | 23 kts | 286° |
| 2026-05-05 15:19 | 78.24862 | 15.42257 | 70 ft | 18 kts | 284° |
| 2026-05-05 15:19 | 78.24897 | 15.41612 | 67 ft | 17 kts | 287° |
| 2026-05-05 15:19 | 78.24927 | 15.41240 | 67 ft | 9 kts | 252° |
| 2026-05-05 15:20 | 78.24907 | 15.41322 | 68 ft | 8 kts | 113° |
| 2026-05-05 15:20 | 78.24897 | 15.41493 | 69 ft | 0 kts | 105° |
| 2026-05-05 15:20 | 78.24884 | 15.41713 | 69 ft | 33 kts | 105° |
| 2026-05-05 15:20 | 78.24757 | 15.44032 | 87 ft | 103 kts | 105° |
| 2026-05-05 15:21 | 78.24520 | 15.48276 | 120 ft | 150 kts | 107° |
| 2026-05-05 15:21 | 78.24222 | 15.53188 | 696 ft | 149 kts | 102° |
| 2026-05-05 15:21 | 78.23925 | 15.58071 | 1316 ft | 150 kts | 102° |
| 2026-05-05 15:21 | 78.23601 | 15.63359 | 1562 ft | 174 kts | 102° |
| 2026-05-05 15:22 | 78.23192 | 15.69380 | 1801 ft | 200 kts | 112° |
| 2026-05-05 15:22 | 78.22436 | 15.75624 | 2155 ft | 226 kts | 121° |
| 2026-05-05 15:22 | 78.21472 | 15.82160 | 2675 ft | 245 kts | 124° |
| 2026-05-05 15:22 | 78.20429 | 15.88894 | 3471 ft | 251 kts | 125° |
| 2026-05-05 15:23 | 78.19368 | 15.95728 | 4317 ft | 255 kts | 124° |
| 2026-05-05 15:23 | 78.18300 | 16.02689 | 5212 ft | 257 kts | 123° |
| 2026-05-05 15:23 | 78.17256 | 16.09821 | 6080 ft | 259 kts | 120° |
| 2026-05-05 15:23 | 78.16277 | 16.17226 | 6964 ft | 261 kts | 117° |
| 2026-05-05 15:24 | 78.15324 | 16.24756 | 7835 ft | 262 kts | 116° |
| 2026-05-05 15:24 | 78.14365 | 16.32366 | 8646 ft | 265 kts | 116° |
| 2026-05-05 15:24 | 78.13402 | 16.39953 | 9435 ft | 267 kts | 116° |
| 2026-05-05 15:24 | 78.12416 | 16.47675 | 10243 ft | 270 kts | 116° |
| 2026-05-05 15:25 | 78.11378 | 16.55778 | 10673 ft | 291 kts | 117° |
| 2026-05-05 15:25 | 78.10280 | 16.64319 | 10917 ft | 313 kts | 117° |
| 2026-05-05 15:25 | 78.09101 | 16.73367 | 11463 ft | 321 kts | 118° |
| 2026-05-05 15:25 | 78.07891 | 16.82544 | 12143 ft | 325 kts | 118° |
| 2026-05-05 15:26 | 78.06657 | 16.91796 | 12801 ft | 328 kts | 118° |
| 2026-05-05 15:26 | 78.05414 | 17.01084 | 13432 ft | 332 kts | 118° |
| 2026-05-05 15:26 | 78.04153 | 17.10494 | 14057 ft | 335 kts | 118° |
| 2026-05-05 15:26 | 78.02877 | 17.19969 | 14659 ft | 339 kts | 119° |
| 2026-05-05 15:27 | 78.01579 | 17.29523 | 15242 ft | 343 kts | 119° |
| 2026-05-05 15:27 | 78.00263 | 17.39166 | 15786 ft | 346 kts | 119° |
| 2026-05-05 15:27 | 77.98955 | 17.48751 | 16314 ft | 349 kts | 119° |
| 2026-05-05 15:27 | 77.97439 | 17.57984 | 16846 ft | 358 kts | 130° |
| 2026-05-05 15:28 | 77.95496 | 17.65680 | 17367 ft | 367 kts | 143° |
| 2026-05-05 15:28 | 77.93188 | 17.71269 | 17888 ft | 377 kts | 156° |
| 2026-05-05 15:28 | 77.90625 | 17.74359 | 18429 ft | 385 kts | 169° |
| 2026-05-05 15:28 | 77.87944 | 17.75711 | 18968 ft | 389 kts | 171° |
| 2026-05-05 15:29 | 77.85243 | 17.77022 | 19534 ft | 392 kts | 171° |
| 2026-05-05 15:29 | 77.82514 | 17.78348 | 20076 ft | 395 kts | 171° |
| 2026-05-05 15:29 | 77.79772 | 17.79672 | 20615 ft | 398 kts | 171° |
| 2026-05-05 15:29 | 77.77004 | 17.81020 | 21124 ft | 401 kts | 171° |
| 2026-05-05 15:30 | 77.74214 | 17.82367 | 21632 ft | 404 kts | 172° |
| 2026-05-05 15:30 | 77.71402 | 17.83718 | 22111 ft | 407 kts | 172° |
| 2026-05-05 15:30 | 77.68578 | 17.85076 | 22577 ft | 410 kts | 172° |
| 2026-05-05 15:30 | 77.65735 | 17.86433 | 23029 ft | 412 kts | 172° |
| 2026-05-05 15:31 | 77.62870 | 17.87792 | 23451 ft | 414 kts | 172° |
| 2026-05-05 15:31 | 77.59997 | 17.89137 | 23870 ft | 417 kts | 172° |
| 2026-05-05 15:31 | 77.57097 | 17.90489 | 24270 ft | 419 kts | 172° |
| 2026-05-05 15:31 | 77.54185 | 17.91851 | 24667 ft | 422 kts | 172° |
| 2026-05-05 15:32 | 77.51256 | 17.93215 | 25068 ft | 424 kts | 172° |
| 2026-05-05 15:32 | 77.48307 | 17.94573 | 25452 ft | 427 kts | 172° |
| 2026-05-05 15:32 | 77.45340 | 17.95917 | 25830 ft | 429 kts | 172° |
| 2026-05-05 15:32 | 77.42399 | 17.97244 | 26188 ft | 432 kts | 172° |
| 2026-05-05 15:33 | 77.39407 | 17.98605 | 26551 ft | 433 kts | 172° |
| 2026-05-05 15:33 | 77.36399 | 17.99980 | 26899 ft | 435 kts | 172° |
| 2026-05-05 15:33 | 77.33373 | 18.01357 | 27231 ft | 438 kts | 173° |
| 2026-05-05 15:33 | 77.30333 | 18.02717 | 27548 ft | 441 kts | 173° |
| 2026-05-05 15:34 | 77.27272 | 18.04066 | 27881 ft | 443 kts | 173° |
| 2026-05-05 15:34 | 77.24200 | 18.05437 | 28205 ft | 445 kts | 173° |
| 2026-05-05 15:34 | 77.21110 | 18.06846 | 28526 ft | 447 kts | 173° |
| 2026-05-05 15:34 | 77.18008 | 18.08262 | 28836 ft | 449 kts | 173° |
| 2026-05-05 15:35 | 77.14892 | 18.09689 | 29141 ft | 451 kts | 173° |
| 2026-05-05 15:35 | 77.11752 | 18.11114 | 29431 ft | 454 kts | 173° |
| 2026-05-05 15:35 | 77.08595 | 18.12539 | 29722 ft | 456 kts | 173° |
| 2026-05-05 15:35 | 77.05434 | 18.13964 | 30023 ft | 458 kts | 173° |
| 2026-05-05 15:36 | 77.02249 | 18.15381 | 30281 ft | 460 kts | 173° |
| 2026-05-05 15:36 | 76.99058 | 18.16784 | 30541 ft | 462 kts | 173° |
| 2026-05-05 15:36 | 76.95851 | 18.18198 | 30818 ft | 464 kts | 173° |
| 2026-05-05 15:36 | 76.92637 | 18.19611 | 31189 ft | 463 kts | 173° |
| 2026-05-05 15:37 | 76.89431 | 18.21020 | 31547 ft | 463 kts | 173° |
| 2026-05-05 15:37 | 76.86226 | 18.22422 | 31889 ft | 463 kts | 173° |
| 2026-05-05 15:37 | 76.83059 | 18.23792 | 32225 ft | 463 kts | 173° |
| 2026-05-05 15:37 | 76.79851 | 18.25153 | 32563 ft | 463 kts | 173° |
| 2026-05-05 15:38 | 76.76640 | 18.26512 | 32917 ft | 463 kts | 173° |
| 2026-05-05 15:38 | 76.73433 | 18.27880 | 33244 ft | 463 kts | 173° |
| 2026-05-05 15:38 | 76.70225 | 18.29238 | 33573 ft | 463 kts | 173° |
| 2026-05-05 15:38 | 76.67014 | 18.30591 | 33909 ft | 463 kts | 173° |
| 2026-05-05 15:39 | 76.63808 | 18.31940 | 34247 ft | 463 kts | 173° |
| 2026-05-05 15:39 | 76.60603 | 18.33275 | 34574 ft | 463 kts | 173° |
| 2026-05-05 15:39 | 76.57396 | 18.34611 | 34891 ft | 463 kts | 173° |
| 2026-05-05 15:39 | 76.54188 | 18.35934 | 35188 ft | 463 kts | 173° |
| 2026-05-05 15:40 | 76.51024 | 18.37228 | 35473 ft | 463 kts | 173° |
| 2026-05-05 15:40 | 76.47816 | 18.38527 | 35741 ft | 463 kts | 173° |
| 2026-05-05 15:40 | 76.44608 | 18.39831 | 35997 ft | 463 kts | 173° |
| 2026-05-05 15:40 | 76.41393 | 18.41131 | 36238 ft | 464 kts | 173° |
| 2026-05-05 15:41 | 76.38180 | 18.42399 | 36462 ft | 464 kts | 174° |
| 2026-05-05 15:41 | 76.34959 | 18.43654 | 36681 ft | 464 kts | 174° |
| 2026-05-05 15:41 | 76.31748 | 18.44883 | 36910 ft | 464 kts | 174° |
| 2026-05-05 15:41 | 76.28532 | 18.46098 | 37059 ft | 463 kts | 174° |
| 2026-05-05 15:42 | 76.25329 | 18.47295 | 37084 ft | 461 kts | 174° |
| 2026-05-05 15:42 | 76.18947 | 18.49710 | 37072 ft | 460 kts | 174° |
| 2026-05-05 15:43 | 76.12580 | 18.52140 | 37067 ft | 459 kts | 174° |
| 2026-05-05 15:43 | 76.06214 | 18.54533 | 37063 ft | 459 kts | 174° |
| 2026-05-05 15:44 | 75.99847 | 18.56886 | 37054 ft | 459 kts | 174° |
| 2026-05-05 15:44 | 75.93482 | 18.59227 | 37057 ft | 459 kts | 174° |
| 2026-05-05 15:45 | 75.87112 | 18.61516 | 37056 ft | 460 kts | 174° |
| 2026-05-05 15:45 | 75.80735 | 18.63797 | 37054 ft | 460 kts | 174° |
| 2026-05-05 15:46 | 75.74406 | 18.66050 | 37046 ft | 460 kts | 174° |
| 2026-05-05 15:46 | 75.68038 | 18.68314 | 37039 ft | 459 kts | 174° |
| 2026-05-05 15:47 | 75.61666 | 18.70592 | 37036 ft | 459 kts | 174° |
| 2026-05-05 15:47 | 75.55296 | 18.72807 | 37033 ft | 459 kts | 174° |
| 2026-05-05 15:48 | 75.48936 | 18.74977 | 37023 ft | 459 kts | 174° |
| 2026-05-05 15:48 | 75.42563 | 18.77118 | 37016 ft | 459 kts | 174° |
| 2026-05-05 15:49 | 75.36188 | 18.79276 | 37009 ft | 459 kts | 174° |
| 2026-05-05 15:49 | 75.29816 | 18.81424 | 37003 ft | 459 kts | 174° |
| 2026-05-05 15:50 | 75.23446 | 18.83564 | 36993 ft | 459 kts | 174° |
| 2026-05-05 15:50 | 75.17078 | 18.85674 | 36988 ft | 459 kts | 174° |
| 2026-05-05 15:51 | 75.10752 | 18.87745 | 36982 ft | 459 kts | 174° |
| 2026-05-05 15:51 | 75.04382 | 18.89801 | 36975 ft | 459 kts | 174° |
| 2026-05-05 15:52 | 74.98019 | 18.91862 | 36965 ft | 459 kts | 174° |
| 2026-05-05 15:52 | 74.91647 | 18.93887 | 36920 ft | 458 kts | 174° |
| 2026-05-05 15:53 | 74.85300 | 18.95882 | 36905 ft | 458 kts | 174° |
| 2026-05-05 15:53 | 74.78936 | 18.97873 | 36895 ft | 458 kts | 174° |
| 2026-05-05 15:54 | 74.72581 | 18.99866 | 36896 ft | 459 kts | 174° |
| 2026-05-05 15:54 | 74.66222 | 19.01845 | 36892 ft | 459 kts | 174° |
| 2026-05-05 15:55 | 74.59861 | 19.03786 | 36890 ft | 459 kts | 174° |
| 2026-05-05 15:55 | 74.53532 | 19.05728 | 36882 ft | 458 kts | 174° |
| 2026-05-05 15:56 | 74.47172 | 19.07637 | 36872 ft | 458 kts | 174° |
| 2026-05-05 15:56 | 74.40802 | 19.09529 | 36864 ft | 458 kts | 174° |
| 2026-05-05 15:57 | 74.34436 | 19.11388 | 36857 ft | 458 kts | 174° |
| 2026-05-05 15:57 | 74.28078 | 19.13274 | 36849 ft | 459 kts | 174° |
| 2026-05-05 15:58 | 74.21713 | 19.15152 | 36841 ft | 458 kts | 174° |
| 2026-05-05 15:58 | 74.15355 | 19.16996 | 36833 ft | 459 kts | 174° |
| 2026-05-05 15:59 | 74.08998 | 19.18836 | 36818 ft | 458 kts | 174° |
| 2026-05-05 15:59 | 74.02670 | 19.20627 | 36814 ft | 459 kts | 174° |
| 2026-05-05 16:00 | 73.96307 | 19.22405 | 36818 ft | 459 kts | 175° |
| 2026-05-05 16:00 | 73.89947 | 19.24181 | 36819 ft | 458 kts | 175° |
| 2026-05-05 16:01 | 73.83588 | 19.25977 | 36814 ft | 458 kts | 175° |
| 2026-05-05 16:01 | 73.77240 | 19.27745 | 36814 ft | 458 kts | 175° |
| 2026-05-05 16:02 | 73.70881 | 19.29509 | 36812 ft | 458 kts | 175° |
| 2026-05-05 16:02 | 73.64524 | 19.31235 | 36806 ft | 458 kts | 175° |
| 2026-05-05 16:03 | 73.58217 | 19.32907 | 36799 ft | 458 kts | 175° |
| 2026-05-05 16:03 | 73.51857 | 19.34626 | 36795 ft | 458 kts | 175° |
| 2026-05-05 16:04 | 73.45493 | 19.36343 | 36791 ft | 458 kts | 175° |
| 2026-05-05 16:04 | 73.39138 | 19.38029 | 36787 ft | 458 kts | 175° |
| 2026-05-05 16:05 | 73.32778 | 19.39679 | 36781 ft | 458 kts | 175° |
| 2026-05-05 16:05 | 73.26430 | 19.41313 | 36776 ft | 458 kts | 175° |
| 2026-05-05 16:06 | 73.20078 | 19.42964 | 36770 ft | 458 kts | 175° |
| 2026-05-05 16:06 | 73.13731 | 19.44607 | 36765 ft | 457 kts | 175° |
| 2026-05-05 16:07 | 73.08454 | 19.45945 | 36763 ft | 457 kts | 175° |
| 2026-05-05 16:07 | 73.01078 | 19.47828 | 36756 ft | 457 kts | 175° |
| 2026-05-05 16:08 | 72.94736 | 19.49427 | 36751 ft | 457 kts | 175° |
| 2026-05-05 16:08 | 72.89419 | 19.50745 | 36751 ft | 457 kts | 175° |
| 2026-05-05 16:09 | 72.83115 | 19.52292 | 36750 ft | 457 kts | 175° |
| 2026-05-05 16:09 | 72.76771 | 19.53870 | 36748 ft | 457 kts | 175° |
| 2026-05-05 16:10 | 72.70434 | 19.55418 | 36746 ft | 457 kts | 175° |
| 2026-05-05 16:10 | 72.64098 | 19.56941 | 36742 ft | 456 kts | 175° |
| 2026-05-05 16:11 | 72.57757 | 19.58457 | 36741 ft | 456 kts | 175° |
| 2026-05-05 16:12 | 72.45101 | 19.61484 | 36737 ft | 456 kts | 175° |
| 2026-05-05 16:13 | 72.29318 | 19.65196 | 36726 ft | 455 kts | 175° |
| 2026-05-05 16:13 | 72.23000 | 19.66636 | 36719 ft | 455 kts | 176° |
| 2026-05-05 16:14 | 72.10372 | 19.69548 | 36715 ft | 455 kts | 177° |
| 2026-05-05 16:15 | 72.04089 | 19.67881 | 36712 ft | 454 kts | 189° |
| 2026-05-05 16:15 | 71.97834 | 19.64681 | 36709 ft | 455 kts | 189° |
| 2026-05-05 16:16 | 71.85322 | 19.58411 | 36710 ft | 455 kts | 188° |
| 2026-05-05 16:17 | 71.75977 | 19.53818 | 36703 ft | 455 kts | 188° |
| 2026-05-05 16:18 | 71.66589 | 19.49238 | 36701 ft | 455 kts | 188° |
| 2026-05-05 16:19 | 71.57208 | 19.44639 | 36698 ft | 455 kts | 188° |
| 2026-05-05 16:19 | 71.47823 | 19.40144 | 36517 ft | 454 kts | 188° |
| 2026-05-05 16:20 | 71.41578 | 19.37177 | 36020 ft | 455 kts | 188° |
| 2026-05-05 16:20 | 71.35289 | 19.34211 | 35521 ft | 459 kts | 188° |
| 2026-05-05 16:21 | 71.29004 | 19.31267 | 34736 ft | 461 kts | 188° |
| 2026-05-05 16:22 | 71.19576 | 19.26859 | 32091 ft | 448 kts | 188° |
| 2026-05-05 16:22 | 71.13493 | 19.24073 | 30726 ft | 437 kts | 188° |
| 2026-05-05 16:23 | 71.07508 | 19.21324 | 29586 ft | 432 kts | 188° |
| 2026-05-05 16:23 | 71.04544 | 19.19956 | 29018 ft | 430 kts | 188° |
| 2026-05-05 16:23 | 70.98661 | 19.17278 | 27873 ft | 425 kts | 188° |
| 2026-05-05 16:24 | 70.95743 | 19.15956 | 27309 ft | 422 kts | 188° |
| 2026-05-05 16:24 | 70.92883 | 19.14666 | 26758 ft | 419 kts | 188° |
| 2026-05-05 16:24 | 70.87156 | 19.12097 | 25655 ft | 412 kts | 188° |
| 2026-05-05 16:25 | 70.84330 | 19.10832 | 25131 ft | 409 kts | 188° |
| 2026-05-05 16:25 | 70.78753 | 19.08355 | 24090 ft | 401 kts | 188° |
| 2026-05-05 16:25 | 70.76001 | 19.07136 | 23584 ft | 398 kts | 188° |
| 2026-05-05 16:26 | 70.70561 | 19.04721 | 22629 ft | 391 kts | 188° |
| 2026-05-05 16:26 | 70.65206 | 19.02362 | 21683 ft | 386 kts | 188° |
| 2026-05-05 16:27 | 70.62550 | 19.01251 | 21226 ft | 384 kts | 186° |
| 2026-05-05 16:27 | 70.59883 | 19.01004 | 20767 ft | 382 kts | 181° |
| 2026-05-05 16:27 | 70.57230 | 19.00970 | 20308 ft | 380 kts | 181° |
| 2026-05-05 16:27 | 70.54596 | 19.00935 | 19829 ft | 378 kts | 181° |
| 2026-05-05 16:28 | 70.52010 | 19.00901 | 19355 ft | 375 kts | 181° |
| 2026-05-05 16:28 | 70.49405 | 19.00861 | 18864 ft | 373 kts | 181° |
| 2026-05-05 16:28 | 70.46819 | 19.00821 | 18429 ft | 369 kts | 181° |
| 2026-05-05 16:28 | 70.44297 | 19.00787 | 18298 ft | 356 kts | 181° |
| 2026-05-05 16:29 | 70.41866 | 19.00754 | 18168 ft | 343 kts | 181° |
| 2026-05-05 16:29 | 70.39523 | 19.00717 | 18005 ft | 329 kts | 181° |
| 2026-05-05 16:29 | 70.37270 | 19.00685 | 17445 ft | 321 kts | 181° |
| 2026-05-05 16:29 | 70.35052 | 19.00654 | 16790 ft | 317 kts | 181° |
| 2026-05-05 16:30 | 70.32861 | 19.00622 | 16124 ft | 314 kts | 181° |
| 2026-05-05 16:30 | 70.30688 | 19.00583 | 15462 ft | 311 kts | 181° |
| 2026-05-05 16:30 | 70.28513 | 19.00544 | 15055 ft | 311 kts | 181° |
| 2026-05-05 16:30 | 70.26366 | 19.00512 | 14597 ft | 307 kts | 181° |
| 2026-05-05 16:31 | 70.24235 | 19.00477 | 13949 ft | 304 kts | 181° |
| 2026-05-05 16:31 | 70.22140 | 19.00446 | 13471 ft | 298 kts | 181° |
| 2026-05-05 16:31 | 70.20059 | 19.00411 | 13027 ft | 301 kts | 181° |
| 2026-05-05 16:31 | 70.17964 | 19.00375 | 12632 ft | 301 kts | 181° |
| 2026-05-05 16:32 | 70.15903 | 19.00345 | 12196 ft | 292 kts | 182° |
| 2026-05-05 16:32 | 70.13903 | 19.00318 | 11782 ft | 284 kts | 182° |
| 2026-05-05 16:32 | 70.11914 | 19.00289 | 11375 ft | 286 kts | 181° |
| 2026-05-05 16:32 | 70.09946 | 19.00209 | 10969 ft | 288 kts | 185° |
| 2026-05-05 16:33 | 70.07969 | 18.99223 | 10561 ft | 288 kts | 197° |
| 2026-05-05 16:33 | 70.06112 | 18.97063 | 10303 ft | 288 kts | 207° |
| 2026-05-05 16:33 | 70.04317 | 18.94463 | 10033 ft | 289 kts | 206° |
| 2026-05-05 16:33 | 70.02511 | 18.91885 | 9751 ft | 290 kts | 205° |
| 2026-05-05 16:34 | 70.00695 | 18.89324 | 9465 ft | 290 kts | 205° |
| 2026-05-05 16:34 | 69.98882 | 18.86764 | 9183 ft | 289 kts | 205° |
| 2026-05-05 16:34 | 69.97085 | 18.84224 | 8903 ft | 286 kts | 205° |
| 2026-05-05 16:34 | 69.95305 | 18.81710 | 8630 ft | 282 kts | 205° |
| 2026-05-05 16:35 | 69.93541 | 18.79227 | 8357 ft | 280 kts | 205° |
| 2026-05-05 16:35 | 69.91793 | 18.76767 | 8084 ft | 278 kts | 205° |
| 2026-05-05 16:35 | 69.90053 | 18.74329 | 7817 ft | 276 kts | 205° |
| 2026-05-05 16:35 | 69.88339 | 18.71937 | 7552 ft | 270 kts | 205° |
| 2026-05-05 16:36 | 69.86653 | 18.69573 | 7300 ft | 269 kts | 205° |
| 2026-05-05 16:36 | 69.84967 | 18.67210 | 7025 ft | 271 kts | 205° |
| 2026-05-05 16:36 | 69.83281 | 18.64859 | 6769 ft | 267 kts | 204° |
| 2026-05-05 16:36 | 69.81656 | 18.62596 | 6689 ft | 248 kts | 204° |
| 2026-05-05 16:37 | 69.80132 | 18.60479 | 6592 ft | 240 kts | 204° |
| 2026-05-05 16:37 | 69.78640 | 18.58401 | 6399 ft | 237 kts | 205° |
| 2026-05-05 16:37 | 69.77155 | 18.56344 | 6181 ft | 234 kts | 204° |
| 2026-05-05 16:37 | 69.75689 | 18.54321 | 5953 ft | 233 kts | 204° |
| 2026-05-05 16:38 | 69.74222 | 18.52299 | 5727 ft | 233 kts | 204° |
| 2026-05-05 16:38 | 69.72760 | 18.50288 | 5501 ft | 232 kts | 204° |
| 2026-05-05 16:38 | 69.71302 | 18.48285 | 5279 ft | 231 kts | 204° |
| 2026-05-05 16:38 | 69.69815 | 18.46575 | 5083 ft | 230 kts | 192° |
| 2026-05-05 16:39 | 69.68238 | 18.45846 | 4993 ft | 226 kts | 180° |
| 2026-05-05 16:39 | 69.66661 | 18.45888 | 5001 ft | 228 kts | 176° |
| 2026-05-05 16:39 | 69.65075 | 18.45973 | 5003 ft | 227 kts | 175° |
| 2026-05-05 16:39 | 69.63512 | 18.46050 | 5003 ft | 227 kts | 176° |
| 2026-05-05 16:40 | 69.61924 | 18.46116 | 5008 ft | 228 kts | 177° |
| 2026-05-05 16:40 | 69.60341 | 18.46169 | 5000 ft | 226 kts | 178° |
| 2026-05-05 16:40 | 69.58751 | 18.46242 | 4999 ft | 227 kts | 177° |
| 2026-05-05 16:40 | 69.57196 | 18.46322 | 5003 ft | 225 kts | 178° |
| 2026-05-05 16:41 | 69.55622 | 18.46398 | 5002 ft | 226 kts | 176° |
| 2026-05-05 16:41 | 69.54046 | 18.46487 | 5001 ft | 227 kts | 174° |
| 2026-05-05 16:41 | 69.52525 | 18.47479 | 5003 ft | 224 kts | 159° |
| 2026-05-05 16:41 | 69.51012 | 18.48605 | 5004 ft | 226 kts | 164° |
| 2026-05-05 16:42 | 69.49489 | 18.49649 | 4998 ft | 224 kts | 156° |
| 2026-05-05 16:42 | 69.48203 | 18.51997 | 5003 ft | 219 kts | 130° |
| 2026-05-05 16:42 | 69.47258 | 18.55396 | 5001 ft | 220 kts | 126° |
| 2026-05-05 16:42 | 69.46330 | 18.58869 | 5002 ft | 221 kts | 125° |
| 2026-05-05 16:43 | 69.45408 | 18.62342 | 5000 ft | 218 kts | 123° |
| 2026-05-05 16:43 | 69.44560 | 18.65876 | 4999 ft | 214 kts | 110° |
| 2026-05-05 16:43 | 69.44300 | 18.69970 | 5001 ft | 213 kts | 83° |
| 2026-05-05 16:43 | 69.44757 | 18.73909 | 5001 ft | 215 kts | 55° |
| 2026-05-05 16:44 | 69.45838 | 18.76755 | 5006 ft | 211 kts | 27° |
| 2026-05-05 16:44 | 69.47190 | 18.77944 | 5023 ft | 200 kts | 14° |
| 2026-05-05 16:44 | 69.48524 | 18.78810 | 4890 ft | 196 kts | 14° |
| 2026-05-05 16:44 | 69.49845 | 18.79675 | 4624 ft | 194 kts | 14° |
| 2026-05-05 16:45 | 69.51158 | 18.80535 | 4299 ft | 195 kts | 14° |
| 2026-05-05 16:45 | 69.52454 | 18.81384 | 3961 ft | 186 kts | 14° |
| 2026-05-05 16:45 | 69.53694 | 18.82199 | 3638 ft | 178 kts | 14° |
| 2026-05-05 16:45 | 69.54828 | 18.82944 | 3349 ft | 157 kts | 15° |
| 2026-05-05 16:46 | 69.55839 | 18.83609 | 3078 ft | 143 kts | 15° |
| 2026-05-05 16:46 | 69.56784 | 18.84233 | 2831 ft | 137 kts | 15° |
| 2026-05-05 16:46 | 69.57704 | 18.84841 | 2589 ft | 135 kts | 15° |
| 2026-05-05 16:46 | 69.58615 | 18.85443 | 2354 ft | 134 kts | 15° |
| 2026-05-05 16:47 | 69.59504 | 18.86032 | 2124 ft | 133 kts | 15° |
| 2026-05-05 16:47 | 69.60411 | 18.86632 | 1877 ft | 133 kts | 15° |
| 2026-05-05 16:47 | 69.61315 | 18.87229 | 1650 ft | 133 kts | 15° |
| 2026-05-05 16:47 | 69.62217 | 18.87828 | 1414 ft | 133 kts | 15° |
| 2026-05-05 16:48 | 69.63119 | 18.88424 | 1174 ft | 133 kts | 15° |
| 2026-05-05 16:48 | 69.64019 | 18.89022 | 941 ft | 132 kts | 15° |
| 2026-05-05 16:48 | 69.64916 | 18.89618 | 704 ft | 132 kts | 15° |
| 2026-05-05 16:48 | 69.65814 | 18.90219 | 469 ft | 132 kts | 15° |
| 2026-05-05 16:49 | 69.66713 | 18.90819 | 232 ft | 132 kts | 14° |
| 2026-05-05 16:49 | 69.67604 | 18.91423 | 46 ft | 125 kts | 13° |
| 2026-05-05 16:49 | 69.68228 | 18.91834 | 28 ft | 50 kts | 13° |
| 2026-05-05 16:49 | 69.68470 | 18.91992 | 26 ft | 37 kts | 12° |
| 2026-05-05 16:50 | 69.68698 | 18.92139 | 22 ft | 15 kts | 13° |
| 2026-05-05 16:50 | 69.68764 | 18.92035 | 23 ft | 14 kts | 281° |
| 2026-05-05 16:50 | 69.68774 | 18.91736 | 22 ft | 16 kts | 251° |
| 2026-05-05 16:50 | 69.68710 | 18.91678 | 21 ft | 8 kts | 188° |
| 2026-05-05 16:51 | 69.68657 | 18.91652 | 27 ft | 7 kts | 190° |
| 2026-05-05 16:51 | 69.68613 | 18.91622 | 29 ft | 7 kts | 194° |
| 2026-05-05 16:51 | 69.68559 | 18.91577 | 30 ft | 10 kts | 197° |
| 2026-05-05 16:51 | 69.68483 | 18.91519 | 29 ft | 13 kts | 194° |
| 2026-05-05 16:52 | 69.68385 | 18.91500 | 29 ft | 16 kts | 179° |
| 2026-05-05 16:52 | 69.68288 | 18.91477 | 27 ft | 15 kts | 194° |
| 2026-05-05 16:52 | 69.68180 | 18.91402 | 30 ft | 16 kts | 193° |
| 2026-05-05 16:52 | 69.68073 | 18.91330 | 32 ft | 14 kts | 193° |
| 2026-05-05 16:53 | 69.68033 | 18.91285 | 33 ft | 3 kts | 231° |
| 2026-05-05 16:53 | 69.68028 | 18.91207 | 34 ft | 5 kts | 279° |
| 2026-05-05 16:53 | 69.68038 | 18.91095 | 35 ft | 6 kts | 283° |
| 2026-05-05 16:53 | 69.68045 | 18.91005 | 36 ft | 5 kts | 283° |
| 2026-05-05 16:54 | 69.68048 | 18.90969 | 36 ft | 0 kts | 283° |